sensor_id;sensor_type;location;lat;lon;timestamp;P1;durP1;ratioP1;P2;durP2;ratioP2
48665;SDS011;34452;50.796;4.994;2023-02-02T00:01:30;23.85;;;3.90;;
48665;SDS011;34452;50.796;4.994;2023-02-02T00:06:23;17.05;;;2.70;;
48665;SDS011;34452;50.796;4.994;2023-02-02T00:08:50;19.58;;;4.18;;
48665;SDS011;34452;50.796;4.994;2023-02-02T00:13:43;26.83;;;3.58;;
48665;SDS011;34452;50.796;4.994;2023-02-02T00:18:58;22.27;;;3.60;;
48665;SDS011;34452;50.796;4.994;2023-02-02T00:21:26;27.58;;;4.35;;
48665;SDS011;34452;50.796;4.994;2023-02-02T00:23:53;17.80;;;2.97;;
48665;SDS011;34452;50.796;4.994;2023-02-02T00:26:19;21.92;;;3.70;;
48665;SDS011;34452;50.796;4.994;2023-02-02T00:28:45;20.63;;;3.67;;
48665;SDS011;34452;50.796;4.994;2023-02-02T00:31:11;31.02;;;3.80;;
48665;SDS011;34452;50.796;4.994;2023-02-02T00:33:37;22.73;;;3.05;;
48665;SDS011;34452;50.796;4.994;2023-02-02T00:36:03;18.50;;;3.92;;
48665;SDS011;34452;50.796;4.994;2023-02-02T00:40:55;16.65;;;2.83;;
48665;SDS011;34452;50.796;4.994;2023-02-02T00:43:21;19.27;;;3.40;;
48665;SDS011;34452;50.796;4.994;2023-02-02T00:45:47;22.42;;;3.38;;
48665;SDS011;34452;50.796;4.994;2023-02-02T00:50:39;17.83;;;3.13;;
48665;SDS011;34452;50.796;4.994;2023-02-02T00:53:04;25.50;;;3.30;;
48665;SDS011;34452;50.796;4.994;2023-02-02T00:55:30;16.85;;;2.72;;
48665;SDS011;34452;50.796;4.994;2023-02-02T00:57:56;27.73;;;4.60;;
48665;SDS011;34452;50.796;4.994;2023-02-02T01:00:23;25.35;;;3.42;;
48665;SDS011;34452;50.796;4.994;2023-02-02T01:02:50;25.42;;;3.30;;
48665;SDS011;34452;50.796;4.994;2023-02-02T01:05:17;22.55;;;3.33;;
48665;SDS011;34452;50.796;4.994;2023-02-02T01:07:44;13.55;;;3.10;;
48665;SDS011;34452;50.796;4.994;2023-02-02T01:12:38;25.92;;;4.20;;
48665;SDS011;34452;50.796;4.994;2023-02-02T01:17:31;24.30;;;3.85;;
48665;SDS011;34452;50.796;4.994;2023-02-02T01:19:57;26.05;;;3.75;;
48665;SDS011;34452;50.796;4.994;2023-02-02T01:22:22;18.50;;;3.17;;
48665;SDS011;34452;50.796;4.994;2023-02-02T01:24:48;23.43;;;3.43;;
48665;SDS011;34452;50.796;4.994;2023-02-02T01:27:14;26.67;;;4.15;;
48665;SDS011;34452;50.796;4.994;2023-02-02T01:29:40;24.47;;;3.63;;
48665;SDS011;34452;50.796;4.994;2023-02-02T01:32:05;26.20;;;3.60;;
48665;SDS011;34452;50.796;4.994;2023-02-02T01:34:31;23.33;;;2.90;;
48665;SDS011;34452;50.796;4.994;2023-02-02T01:36:58;21.83;;;4.47;;
48665;SDS011;34452;50.796;4.994;2023-02-02T01:39:23;25.60;;;4.45;;
48665;SDS011;34452;50.796;4.994;2023-02-02T01:41:49;25.00;;;4.00;;
48665;SDS011;34452;50.796;4.994;2023-02-02T01:47:19;22.10;;;3.83;;
48665;SDS011;34452;50.796;4.994;2023-02-02T01:49:49;27.70;;;3.50;;
48665;SDS011;34452;50.796;4.994;2023-02-02T01:54:46;18.63;;;2.90;;
48665;SDS011;34452;50.796;4.994;2023-02-02T01:57:19;22.83;;;3.47;;
48665;SDS011;34452;50.796;4.994;2023-02-02T01:59:50;21.75;;;3.20;;
48665;SDS011;34452;50.796;4.994;2023-02-02T02:02:17;23.75;;;4.43;;
48665;SDS011;34452;50.796;4.994;2023-02-02T02:04:44;21.67;;;3.40;;
48665;SDS011;34452;50.796;4.994;2023-02-02T02:07:10;16.27;;;3.13;;
48665;SDS011;34452;50.796;4.994;2023-02-02T02:09:36;25.15;;;3.65;;
48665;SDS011;34452;50.796;4.994;2023-02-02T02:12:02;23.40;;;3.90;;
48665;SDS011;34452;50.796;4.994;2023-02-02T02:14:37;26.88;;;5.68;;
48665;SDS011;34452;50.796;4.994;2023-02-02T02:17:26;23.33;;;4.10;;
48665;SDS011;34452;50.796;4.994;2023-02-02T02:39:26;20.75;;;3.83;;
48665;SDS011;34452;50.796;4.994;2023-02-02T02:41:59;11.60;;;2.53;;
48665;SDS011;34452;50.796;4.994;2023-02-02T02:44:30;26.95;;;4.25;;
48665;SDS011;34452;50.796;4.994;2023-02-02T02:46:57;22.70;;;3.65;;
48665;SDS011;34452;50.796;4.994;2023-02-02T02:49:23;21.88;;;3.70;;
48665;SDS011;34452;50.796;4.994;2023-02-02T02:51:49;28.07;;;4.03;;
48665;SDS011;34452;50.796;4.994;2023-02-02T02:54:19;29.80;;;4.47;;
48665;SDS011;34452;50.796;4.994;2023-02-02T03:05:38;24.63;;;3.85;;
48665;SDS011;34452;50.796;4.994;2023-02-02T03:08:12;21.48;;;2.80;;
48665;SDS011;34452;50.796;4.994;2023-02-02T03:10:45;18.00;;;3.70;;
48665;SDS011;34452;50.796;4.994;2023-02-02T03:18:19;26.33;;;3.35;;
48665;SDS011;34452;50.796;4.994;2023-02-02T03:20:49;21.25;;;3.30;;
48665;SDS011;34452;50.796;4.994;2023-02-02T03:23:14;25.50;;;3.37;;
48665;SDS011;34452;50.796;4.994;2023-02-02T03:25:40;26.10;;;3.87;;
48665;SDS011;34452;50.796;4.994;2023-02-02T03:28:07;16.65;;;3.03;;
48665;SDS011;34452;50.796;4.994;2023-02-02T03:30:33;22.73;;;4.30;;
48665;SDS011;34452;50.796;4.994;2023-02-02T03:33:00;37.42;;;5.85;;
48665;SDS011;34452;50.796;4.994;2023-02-02T03:35:26;22.88;;;3.35;;
48665;SDS011;34452;50.796;4.994;2023-02-02T03:37:52;33.28;;;7.53;;
48665;SDS011;34452;50.796;4.994;2023-02-02T03:40:18;17.00;;;3.27;;
48665;SDS011;34452;50.796;4.994;2023-02-02T03:42:44;29.38;;;8.63;;
48665;SDS011;34452;50.796;4.994;2023-02-02T03:45:10;24.50;;;3.37;;
48665;SDS011;34452;50.796;4.994;2023-02-02T03:47:35;21.38;;;4.00;;
48665;SDS011;34452;50.796;4.994;2023-02-02T03:50:01;21.13;;;3.63;;
48665;SDS011;34452;50.796;4.994;2023-02-02T03:52:27;19.13;;;3.13;;
48665;SDS011;34452;50.796;4.994;2023-02-02T03:54:53;21.63;;;3.23;;
48665;SDS011;34452;50.796;4.994;2023-02-02T03:57:18;28.23;;;3.93;;
48665;SDS011;34452;50.796;4.994;2023-02-02T03:59:44;18.10;;;3.30;;
48665;SDS011;34452;50.796;4.994;2023-02-02T04:02:10;15.77;;;3.25;;
48665;SDS011;34452;50.796;4.994;2023-02-02T04:04:36;27.65;;;4.72;;
48665;SDS011;34452;50.796;4.994;2023-02-02T04:07:02;23.73;;;2.90;;
48665;SDS011;34452;50.796;4.994;2023-02-02T04:09:27;18.20;;;3.03;;
48665;SDS011;34452;50.796;4.994;2023-02-02T04:11:53;21.30;;;3.15;;
48665;SDS011;34452;50.796;4.994;2023-02-02T04:14:19;18.38;;;3.10;;
48665;SDS011;34452;50.796;4.994;2023-02-02T04:16:45;21.63;;;3.30;;
48665;SDS011;34452;50.796;4.994;2023-02-02T04:19:10;16.42;;;3.08;;
48665;SDS011;34452;50.796;4.994;2023-02-02T04:21:38;20.95;;;3.38;;
48665;SDS011;34452;50.796;4.994;2023-02-02T04:24:05;27.02;;;3.58;;
48665;SDS011;34452;50.796;4.994;2023-02-02T04:26:31;16.75;;;3.33;;
48665;SDS011;34452;50.796;4.994;2023-02-02T04:28:57;19.80;;;3.53;;
48665;SDS011;34452;50.796;4.994;2023-02-02T04:31:23;18.77;;;3.33;;
48665;SDS011;34452;50.796;4.994;2023-02-02T04:33:48;23.90;;;3.53;;
48665;SDS011;34452;50.796;4.994;2023-02-02T04:36:14;14.97;;;2.67;;
48665;SDS011;34452;50.796;4.994;2023-02-02T04:38:40;21.73;;;3.72;;
48665;SDS011;34452;50.796;4.994;2023-02-02T04:41:06;21.45;;;3.10;;
48665;SDS011;34452;50.796;4.994;2023-02-02T04:43:34;27.83;;;3.70;;
48665;SDS011;34452;50.796;4.994;2023-02-02T04:46:02;20.10;;;3.38;;
48665;SDS011;34452;50.796;4.994;2023-02-02T04:48:28;16.13;;;2.85;;
48665;SDS011;34452;50.796;4.994;2023-02-02T04:53:39;17.77;;;3.08;;
48665;SDS011;34452;50.796;4.994;2023-02-02T04:56:06;20.88;;;3.05;;
48665;SDS011;34452;50.796;4.994;2023-02-02T04:58:34;19.25;;;2.65;;
48665;SDS011;34452;50.796;4.994;2023-02-02T05:01:00;21.02;;;3.38;;
48665;SDS011;34452;50.796;4.994;2023-02-02T05:03:31;36.35;;;5.35;;
48665;SDS011;34452;50.796;4.994;2023-02-02T05:08:33;19.63;;;2.90;;
48665;SDS011;34452;50.796;4.994;2023-02-02T05:13:30;22.35;;;2.72;;
48665;SDS011;34452;50.796;4.994;2023-02-02T05:15:56;16.55;;;2.83;;
48665;SDS011;34452;50.796;4.994;2023-02-02T05:18:21;16.63;;;2.70;;
48665;SDS011;34452;50.796;4.994;2023-02-02T05:20:49;19.10;;;2.85;;
48665;SDS011;34452;50.796;4.994;2023-02-02T05:23:16;19.85;;;3.10;;
48665;SDS011;34452;50.796;4.994;2023-02-02T05:25:42;23.80;;;3.33;;
48665;SDS011;34452;50.796;4.994;2023-02-02T05:28:08;24.10;;;3.25;;
48665;SDS011;34452;50.796;4.994;2023-02-02T05:30:34;24.73;;;3.05;;
48665;SDS011;34452;50.796;4.994;2023-02-02T05:32:59;22.73;;;3.20;;
48665;SDS011;34452;50.796;4.994;2023-02-02T05:35:25;18.67;;;3.43;;
48665;SDS011;34452;50.796;4.994;2023-02-02T05:37:51;26.25;;;4.50;;
48665;SDS011;34452;50.796;4.994;2023-02-02T05:40:16;16.52;;;2.83;;
48665;SDS011;34452;50.796;4.994;2023-02-02T05:42:42;16.27;;;2.50;;
48665;SDS011;34452;50.796;4.994;2023-02-02T05:45:12;23.23;;;2.53;;
48665;SDS011;34452;50.796;4.994;2023-02-02T05:47:38;18.45;;;2.97;;
48665;SDS011;34452;50.796;4.994;2023-02-02T05:50:03;12.63;;;2.53;;
48665;SDS011;34452;50.796;4.994;2023-02-02T05:54:57;25.50;;;3.63;;
48665;SDS011;34452;50.796;4.994;2023-02-02T05:57:23;19.00;;;2.63;;
48665;SDS011;34452;50.796;4.994;2023-02-02T05:59:48;18.23;;;3.20;;
48665;SDS011;34452;50.796;4.994;2023-02-02T06:02:14;18.43;;;2.77;;
48665;SDS011;34452;50.796;4.994;2023-02-02T06:04:40;24.65;;;3.85;;
48665;SDS011;34452;50.796;4.994;2023-02-02T06:07:05;23.83;;;4.10;;
48665;SDS011;34452;50.796;4.994;2023-02-02T06:09:31;27.60;;;3.40;;
48665;SDS011;34452;50.796;4.994;2023-02-02T06:11:57;26.90;;;3.77;;
48665;SDS011;34452;50.796;4.994;2023-02-02T06:14:22;26.43;;;4.43;;
48665;SDS011;34452;50.796;4.994;2023-02-02T06:16:48;20.27;;;3.10;;
48665;SDS011;34452;50.796;4.994;2023-02-02T06:19:14;20.50;;;3.43;;
48665;SDS011;34452;50.796;4.994;2023-02-02T06:21:39;20.97;;;3.43;;
48665;SDS011;34452;50.796;4.994;2023-02-02T06:24:05;24.13;;;3.70;;
48665;SDS011;34452;50.796;4.994;2023-02-02T06:26:31;20.92;;;2.83;;
48665;SDS011;34452;50.796;4.994;2023-02-02T06:28:57;33.85;;;2.97;;
48665;SDS011;34452;50.796;4.994;2023-02-02T06:31:23;14.75;;;2.85;;
48665;SDS011;34452;50.796;4.994;2023-02-02T06:33:52;30.55;;;5.15;;
48665;SDS011;34452;50.796;4.994;2023-02-02T06:36:19;22.42;;;3.45;;
48665;SDS011;34452;50.796;4.994;2023-02-02T06:41:32;21.08;;;4.00;;
48665;SDS011;34452;50.796;4.994;2023-02-02T06:43:58;25.83;;;3.35;;
48665;SDS011;34452;50.796;4.994;2023-02-02T06:46:24;21.02;;;3.33;;
48665;SDS011;34452;50.796;4.994;2023-02-02T06:48:50;23.65;;;3.78;;
48665;SDS011;34452;50.796;4.994;2023-02-02T06:51:16;27.73;;;4.30;;
48665;SDS011;34452;50.796;4.994;2023-02-02T06:53:42;25.75;;;4.30;;
48665;SDS011;34452;50.796;4.994;2023-02-02T06:56:08;33.28;;;4.03;;
48665;SDS011;34452;50.796;4.994;2023-02-02T06:58:36;19.60;;;3.40;;
48665;SDS011;34452;50.796;4.994;2023-02-02T07:01:04;22.70;;;3.28;;
48665;SDS011;34452;50.796;4.994;2023-02-02T07:03:32;27.17;;;4.72;;
48665;SDS011;34452;50.796;4.994;2023-02-02T07:05:59;22.77;;;4.00;;
48665;SDS011;34452;50.796;4.994;2023-02-02T07:08:35;29.25;;;4.38;;
48665;SDS011;34452;50.796;4.994;2023-02-02T07:11:00;16.17;;;4.00;;
48665;SDS011;34452;50.796;4.994;2023-02-02T07:13:26;19.80;;;3.97;;
48665;SDS011;34452;50.796;4.994;2023-02-02T07:15:52;30.70;;;3.80;;
48665;SDS011;34452;50.796;4.994;2023-02-02T07:18:18;21.77;;;3.83;;
48665;SDS011;34452;50.796;4.994;2023-02-02T07:20:44;22.67;;;3.58;;
48665;SDS011;34452;50.796;4.994;2023-02-02T07:23:10;23.53;;;3.90;;
48665;SDS011;34452;50.796;4.994;2023-02-02T07:25:36;17.52;;;3.13;;
48665;SDS011;34452;50.796;4.994;2023-02-02T07:28:02;27.92;;;4.97;;
48665;SDS011;34452;50.796;4.994;2023-02-02T07:30:27;26.08;;;3.80;;
48665;SDS011;34452;50.796;4.994;2023-02-02T07:32:54;16.10;;;3.03;;
48665;SDS011;34452;50.796;4.994;2023-02-02T07:35:20;23.02;;;3.65;;
48665;SDS011;34452;50.796;4.994;2023-02-02T07:37:50;25.95;;;3.72;;
48665;SDS011;34452;50.796;4.994;2023-02-02T07:40:17;22.02;;;3.42;;
48665;SDS011;34452;50.796;4.994;2023-02-02T07:42:45;22.10;;;3.80;;
48665;SDS011;34452;50.796;4.994;2023-02-02T07:45:11;25.42;;;4.78;;
48665;SDS011;34452;50.796;4.994;2023-02-02T07:47:37;28.70;;;5.10;;
48665;SDS011;34452;50.796;4.994;2023-02-02T07:50:03;18.70;;;4.20;;
48665;SDS011;34452;50.796;4.994;2023-02-02T07:52:29;26.88;;;4.88;;
48665;SDS011;34452;50.796;4.994;2023-02-02T07:54:54;19.90;;;3.72;;
48665;SDS011;34452;50.796;4.994;2023-02-02T07:59:46;17.80;;;3.67;;
48665;SDS011;34452;50.796;4.994;2023-02-02T08:02:14;18.63;;;3.30;;
48665;SDS011;34452;50.796;4.994;2023-02-02T08:04:40;24.15;;;5.20;;
48665;SDS011;34452;50.796;4.994;2023-02-02T08:07:06;15.45;;;3.78;;
48665;SDS011;34452;50.796;4.994;2023-02-02T08:09:32;24.77;;;4.05;;
48665;SDS011;34452;50.796;4.994;2023-02-02T08:11:58;20.90;;;4.20;;
48665;SDS011;34452;50.796;4.994;2023-02-02T08:14:26;20.55;;;3.47;;
48665;SDS011;34452;50.796;4.994;2023-02-02T08:16:53;27.20;;;4.18;;
48665;SDS011;34452;50.796;4.994;2023-02-02T08:19:19;26.58;;;3.60;;
48665;SDS011;34452;50.796;4.994;2023-02-02T08:21:45;30.43;;;4.40;;
48665;SDS011;34452;50.796;4.994;2023-02-02T08:24:11;35.00;;;4.13;;
48665;SDS011;34452;50.796;4.994;2023-02-02T08:26:37;25.77;;;5.03;;
48665;SDS011;34452;50.796;4.994;2023-02-02T08:29:04;24.38;;;3.30;;
48665;SDS011;34452;50.796;4.994;2023-02-02T08:31:32;31.48;;;3.65;;
48665;SDS011;34452;50.796;4.994;2023-02-02T08:34:00;20.40;;;2.92;;
48665;SDS011;34452;50.796;4.994;2023-02-02T08:36:27;21.52;;;3.25;;
48665;SDS011;34452;50.796;4.994;2023-02-02T08:38:54;17.92;;;3.70;;
48665;SDS011;34452;50.796;4.994;2023-02-02T08:41:23;23.85;;;3.25;;
48665;SDS011;34452;50.796;4.994;2023-02-02T08:43:49;13.98;;;2.80;;
48665;SDS011;34452;50.796;4.994;2023-02-02T08:48:42;14.25;;;2.92;;
48665;SDS011;34452;50.796;4.994;2023-02-02T08:51:09;24.88;;;3.70;;
48665;SDS011;34452;50.796;4.994;2023-02-02T08:53:38;17.58;;;3.03;;
48665;SDS011;34452;50.796;4.994;2023-02-02T08:56:05;20.00;;;2.78;;
48665;SDS011;34452;50.796;4.994;2023-02-02T08:58:34;15.50;;;2.78;;
48665;SDS011;34452;50.796;4.994;2023-02-02T09:01:03;18.23;;;2.83;;
48665;SDS011;34452;50.796;4.994;2023-02-02T09:03:29;19.35;;;3.03;;
48665;SDS011;34452;50.796;4.994;2023-02-02T09:05:55;24.55;;;3.40;;
48665;SDS011;34452;50.796;4.994;2023-02-02T09:08:21;17.98;;;2.97;;
48665;SDS011;34452;50.796;4.994;2023-02-02T09:10:47;19.42;;;2.92;;
48665;SDS011;34452;50.796;4.994;2023-02-02T09:13:12;16.37;;;3.37;;
48665;SDS011;34452;50.796;4.994;2023-02-02T09:15:38;19.87;;;2.77;;
48665;SDS011;34452;50.796;4.994;2023-02-02T09:18:04;11.95;;;2.67;;
48665;SDS011;34452;50.796;4.994;2023-02-02T09:20:29;15.63;;;2.90;;
48665;SDS011;34452;50.796;4.994;2023-02-02T09:22:55;22.42;;;3.60;;
48665;SDS011;34452;50.796;4.994;2023-02-02T09:25:21;18.38;;;3.15;;
48665;SDS011;34452;50.796;4.994;2023-02-02T09:27:49;10.38;;;2.05;;
48665;SDS011;34452;50.796;4.994;2023-02-02T09:32:41;13.80;;;2.80;;
48665;SDS011;34452;50.796;4.994;2023-02-02T09:35:06;18.33;;;2.57;;
48665;SDS011;34452;50.796;4.994;2023-02-02T09:37:33;14.95;;;3.38;;
48665;SDS011;34452;50.796;4.994;2023-02-02T09:39:59;16.73;;;2.92;;
48665;SDS011;34452;50.796;4.994;2023-02-02T09:52:42;16.08;;;2.95;;
48665;SDS011;34452;50.796;4.994;2023-02-02T10:00:54;15.73;;;2.88;;
48665;SDS011;34452;50.796;4.994;2023-02-02T10:03:39;11.88;;;2.88;;
48665;SDS011;34452;50.796;4.994;2023-02-02T10:08:54;14.05;;;2.35;;
48665;SDS011;34452;50.796;4.994;2023-02-02T10:11:29;12.80;;;2.20;;
48665;SDS011;34452;50.796;4.994;2023-02-02T10:14:13;18.05;;;3.20;;
48665;SDS011;34452;50.796;4.994;2023-02-02T10:16:43;20.13;;;3.10;;
48665;SDS011;34452;50.796;4.994;2023-02-02T10:19:12;21.92;;;2.72;;
48665;SDS011;34452;50.796;4.994;2023-02-02T10:21:51;13.05;;;2.92;;
48665;SDS011;34452;50.796;4.994;2023-02-02T10:24:34;18.67;;;3.60;;
48665;SDS011;34452;50.796;4.994;2023-02-02T10:29:37;26.45;;;3.70;;
48665;SDS011;34452;50.796;4.994;2023-02-02T10:35:28;13.63;;;2.30;;
48665;SDS011;34452;50.796;4.994;2023-02-02T10:38:16;13.55;;;2.30;;
48665;SDS011;34452;50.796;4.994;2023-02-02T10:41:04;15.48;;;2.55;;
48665;SDS011;34452;50.796;4.994;2023-02-02T10:46:54;15.18;;;2.47;;
48665;SDS011;34452;50.796;4.994;2023-02-02T11:00:49;16.83;;;2.63;;
48665;SDS011;34452;50.796;4.994;2023-02-02T11:03:18;14.68;;;2.42;;
48665;SDS011;34452;50.796;4.994;2023-02-02T11:05:47;12.65;;;2.13;;
48665;SDS011;34452;50.796;4.994;2023-02-02T11:08:33;15.18;;;1.95;;
48665;SDS011;34452;50.796;4.994;2023-02-02T11:14:42;11.35;;;2.28;;
48665;SDS011;34452;50.796;4.994;2023-02-02T11:17:00;21.63;;;3.58;;
48665;SDS011;34452;50.796;4.994;2023-02-02T11:19:28;22.25;;;3.13;;
48665;SDS011;34452;50.796;4.994;2023-02-02T11:21:56;17.10;;;2.85;;
48665;SDS011;34452;50.796;4.994;2023-02-02T11:27:12;17.77;;;2.75;;
48665;SDS011;34452;50.796;4.994;2023-02-02T11:29:57;8.25;;;2.20;;
48665;SDS011;34452;50.796;4.994;2023-02-02T11:32:30;9.43;;;2.50;;
48665;SDS011;34452;50.796;4.994;2023-02-02T11:40:42;17.17;;;3.17;;
48665;SDS011;34452;50.796;4.994;2023-02-02T11:45:59;17.30;;;2.60;;
48665;SDS011;34452;50.796;4.994;2023-02-02T11:48:29;17.95;;;2.42;;
48665;SDS011;34452;50.796;4.994;2023-02-02T11:50:59;15.80;;;2.17;;
48665;SDS011;34452;50.796;4.994;2023-02-02T11:53:27;14.93;;;2.42;;
48665;SDS011;34452;50.796;4.994;2023-02-02T11:55:56;17.77;;;3.08;;
48665;SDS011;34452;50.796;4.994;2023-02-02T11:58:27;9.48;;;1.83;;
48665;SDS011;34452;50.796;4.994;2023-02-02T12:00:56;11.82;;;2.40;;
48665;SDS011;34452;50.796;4.994;2023-02-02T12:03:37;22.00;;;2.72;;
48665;SDS011;34452;50.796;4.994;2023-02-02T12:06:24;20.88;;;2.17;;
48665;SDS011;34452;50.796;4.994;2023-02-02T12:08:58;14.55;;;2.47;;
48665;SDS011;34452;50.796;4.994;2023-02-02T12:33:41;15.15;;;2.22;;
48665;SDS011;34452;50.796;4.994;2023-02-02T12:36:21;17.33;;;1.90;;
48665;SDS011;34452;50.796;4.994;2023-02-02T12:47:26;16.10;;;2.08;;
48665;SDS011;34452;50.796;4.994;2023-02-02T12:58:38;13.88;;;2.15;;
48665;SDS011;34452;50.796;4.994;2023-02-02T13:01:18;12.77;;;3.08;;
48665;SDS011;34452;50.796;4.994;2023-02-02T13:09:24;17.10;;;1.95;;
48665;SDS011;34452;50.796;4.994;2023-02-02T13:11:58;11.30;;;3.17;;
48665;SDS011;34452;50.796;4.994;2023-02-02T13:14:36;8.60;;;1.77;;
48665;SDS011;34452;50.796;4.994;2023-02-02T13:20:13;6.72;;;1.58;;
48665;SDS011;34452;50.796;4.994;2023-02-02T13:23:00;11.13;;;2.00;;
48665;SDS011;34452;50.796;4.994;2023-02-02T13:25:49;9.10;;;1.80;;
48665;SDS011;34452;50.796;4.994;2023-02-02T13:28:27;14.13;;;2.10;;
48665;SDS011;34452;50.796;4.994;2023-02-02T13:31:14;11.90;;;1.65;;
48665;SDS011;34452;50.796;4.994;2023-02-02T13:33:43;14.32;;;2.42;;
48665;SDS011;34452;50.796;4.994;2023-02-02T13:36:16;9.43;;;2.42;;
48665;SDS011;34452;50.796;4.994;2023-02-02T13:38:52;12.80;;;2.33;;
48665;SDS011;34452;50.796;4.994;2023-02-02T13:41:21;9.77;;;2.03;;
48665;SDS011;34452;50.796;4.994;2023-02-02T13:43:51;7.28;;;1.25;;
48665;SDS011;34452;50.796;4.994;2023-02-02T13:49:22;15.27;;;2.25;;
48665;SDS011;34452;50.796;4.994;2023-02-02T14:03:05;8.00;;;2.40;;
48665;SDS011;34452;50.796;4.994;2023-02-02T14:06:00;12.73;;;1.95;;
48665;SDS011;34452;50.796;4.994;2023-02-02T14:08:28;14.73;;;2.05;;
48665;SDS011;34452;50.796;4.994;2023-02-02T14:10:57;11.30;;;2.22;;
48665;SDS011;34452;50.796;4.994;2023-02-02T14:13:30;5.53;;;1.15;;
48665;SDS011;34452;50.796;4.994;2023-02-02T14:18:55;10.43;;;1.57;;
48665;SDS011;34452;50.796;4.994;2023-02-02T14:27:38;9.43;;;1.85;;
48665;SDS011;34452;50.796;4.994;2023-02-02T14:32:50;8.65;;;1.70;;
48665;SDS011;34452;50.796;4.994;2023-02-02T14:38:19;11.95;;;1.98;;
48665;SDS011;34452;50.796;4.994;2023-02-02T14:40:56;12.50;;;2.65;;
48665;SDS011;34452;50.796;4.994;2023-02-02T14:43:40;10.02;;;1.70;;
48665;SDS011;34452;50.796;4.994;2023-02-02T14:48:39;6.10;;;1.77;;
48665;SDS011;34452;50.796;4.994;2023-02-02T14:53:54;7.93;;;1.85;;
48665;SDS011;34452;50.796;4.994;2023-02-02T14:56:37;8.90;;;1.55;;
48665;SDS011;34452;50.796;4.994;2023-02-02T14:59:23;7.85;;;2.15;;
48665;SDS011;34452;50.796;4.994;2023-02-02T15:05:37;14.65;;;2.35;;
48665;SDS011;34452;50.796;4.994;2023-02-02T15:13:25;8.57;;;1.40;;
48665;SDS011;34452;50.796;4.994;2023-02-02T15:16:08;10.98;;;2.53;;
48665;SDS011;34452;50.796;4.994;2023-02-02T15:18:43;10.40;;;1.60;;
48665;SDS011;34452;50.796;4.994;2023-02-02T15:21:13;10.05;;;1.60;;
48665;SDS011;34452;50.796;4.994;2023-02-02T15:23:42;5.30;;;1.63;;
48665;SDS011;34452;50.796;4.994;2023-02-02T15:29:15;7.13;;;1.55;;
48665;SDS011;34452;50.796;4.994;2023-02-02T15:31:46;5.55;;;1.40;;
48665;SDS011;34452;50.796;4.994;2023-02-02T15:34:16;15.43;;;2.70;;
48665;SDS011;34452;50.796;4.994;2023-02-02T15:36:50;8.57;;;2.08;;
48665;SDS011;34452;50.796;4.994;2023-02-02T15:41:44;10.50;;;2.75;;
48665;SDS011;34452;50.796;4.994;2023-02-02T15:46:54;8.38;;;1.73;;
48665;SDS011;34452;50.796;4.994;2023-02-02T15:49:25;4.18;;;1.30;;
48665;SDS011;34452;50.796;4.994;2023-02-02T15:51:54;9.15;;;1.60;;
48665;SDS011;34452;50.796;4.994;2023-02-02T16:13:57;5.60;;;1.55;;
48665;SDS011;34452;50.796;4.994;2023-02-02T16:16:28;14.38;;;2.20;;
48665;SDS011;34452;50.796;4.994;2023-02-02T16:21:41;11.45;;;2.45;;
48665;SDS011;34452;50.796;4.994;2023-02-02T16:24:25;10.18;;;1.70;;
48665;SDS011;34452;50.796;4.994;2023-02-02T16:27:11;10.65;;;2.22;;
48665;SDS011;34452;50.796;4.994;2023-02-02T16:29:41;5.70;;;1.75;;
48665;SDS011;34452;50.796;4.994;2023-02-02T16:34:53;9.13;;;1.75;;
48665;SDS011;34452;50.796;4.994;2023-02-02T16:37:21;12.93;;;2.15;;
48665;SDS011;34452;50.796;4.994;2023-02-02T16:39:51;8.55;;;1.95;;
48665;SDS011;34452;50.796;4.994;2023-02-02T16:45:00;10.68;;;2.35;;
48665;SDS011;34452;50.796;4.994;2023-02-02T16:49:53;9.48;;;2.20;;
48665;SDS011;34452;50.796;4.994;2023-02-02T16:52:31;10.27;;;1.90;;
48665;SDS011;34452;50.796;4.994;2023-02-02T16:54:58;8.80;;;2.42;;
48665;SDS011;34452;50.796;4.994;2023-02-02T16:57:26;16.58;;;2.45;;
48665;SDS011;34452;50.796;4.994;2023-02-02T16:59:55;11.10;;;2.35;;
48665;SDS011;34452;50.796;4.994;2023-02-02T17:05:06;14.93;;;2.42;;
48665;SDS011;34452;50.796;4.994;2023-02-02T17:07:48;14.18;;;2.42;;
48665;SDS011;34452;50.796;4.994;2023-02-02T17:16:05;18.52;;;3.03;;
48665;SDS011;34452;50.796;4.994;2023-02-02T17:18:31;9.80;;;2.90;;
48665;SDS011;34452;50.796;4.994;2023-02-02T17:20:57;11.88;;;2.63;;
48665;SDS011;34452;50.796;4.994;2023-02-02T17:23:31;12.15;;;2.40;;
48665;SDS011;34452;50.796;4.994;2023-02-02T17:26:00;12.90;;;2.75;;
48665;SDS011;34452;50.796;4.994;2023-02-02T17:30:57;12.13;;;2.45;;
48665;SDS011;34452;50.796;4.994;2023-02-02T17:33:26;22.65;;;2.88;;
48665;SDS011;34452;50.796;4.994;2023-02-02T17:35:52;10.52;;;2.75;;
48665;SDS011;34452;50.796;4.994;2023-02-02T17:38:18;21.70;;;3.90;;
48665;SDS011;34452;50.796;4.994;2023-02-02T17:40:45;15.75;;;3.08;;
48665;SDS011;34452;50.796;4.994;2023-02-02T17:43:12;16.05;;;2.58;;
48665;SDS011;34452;50.796;4.994;2023-02-02T17:45:37;10.60;;;2.53;;
48665;SDS011;34452;50.796;4.994;2023-02-02T17:48:04;9.60;;;2.35;;
48665;SDS011;34452;50.796;4.994;2023-02-02T17:50:30;9.20;;;2.28;;
48665;SDS011;34452;50.796;4.994;2023-02-02T17:52:57;16.98;;;3.95;;
48665;SDS011;34452;50.796;4.994;2023-02-02T17:55:24;13.05;;;2.60;;
48665;SDS011;34452;50.796;4.994;2023-02-02T17:57:54;18.50;;;3.38;;
48665;SDS011;34452;50.796;4.994;2023-02-02T18:00:21;15.50;;;2.60;;
48665;SDS011;34452;50.796;4.994;2023-02-02T18:02:50;8.82;;;2.33;;
48665;SDS011;34452;50.796;4.994;2023-02-02T18:05:18;9.10;;;3.38;;
48665;SDS011;34452;50.796;4.994;2023-02-02T18:07:43;13.98;;;2.60;;
48665;SDS011;34452;50.796;4.994;2023-02-02T18:10:10;13.48;;;2.75;;
48665;SDS011;34452;50.796;4.994;2023-02-02T18:12:37;12.98;;;2.92;;
48665;SDS011;34452;50.796;4.994;2023-02-02T18:17:30;10.30;;;2.90;;
48665;SDS011;34452;50.796;4.994;2023-02-02T18:19:56;13.10;;;2.58;;
48665;SDS011;34452;50.796;4.994;2023-02-02T18:22:22;11.65;;;2.80;;
48665;SDS011;34452;50.796;4.994;2023-02-02T18:27:14;10.77;;;2.60;;
48665;SDS011;34452;50.796;4.994;2023-02-02T18:29:43;8.40;;;2.47;;
48665;SDS011;34452;50.796;4.994;2023-02-02T18:32:08;14.30;;;3.13;;
48665;SDS011;34452;50.796;4.994;2023-02-02T18:34:34;8.80;;;2.00;;
48665;SDS011;34452;50.796;4.994;2023-02-02T18:37:01;9.93;;;2.50;;
48665;SDS011;34452;50.796;4.994;2023-02-02T18:39:28;10.25;;;2.58;;
48665;SDS011;34452;50.796;4.994;2023-02-02T18:41:54;14.02;;;2.90;;
48665;SDS011;34452;50.796;4.994;2023-02-02T18:44:20;6.88;;;2.55;;
48665;SDS011;34452;50.796;4.994;2023-02-02T18:46:48;9.95;;;2.70;;
48665;SDS011;34452;50.796;4.994;2023-02-02T18:49:15;11.30;;;2.40;;
48665;SDS011;34452;50.796;4.994;2023-02-02T18:51:41;14.45;;;2.80;;
48665;SDS011;34452;50.796;4.994;2023-02-02T18:54:08;9.93;;;2.67;;
48665;SDS011;34452;50.796;4.994;2023-02-02T18:56:34;14.05;;;3.65;;
48665;SDS011;34452;50.796;4.994;2023-02-02T18:59:01;15.98;;;3.38;;
48665;SDS011;34452;50.796;4.994;2023-02-02T19:01:27;15.60;;;3.22;;
48665;SDS011;34452;50.796;4.994;2023-02-02T19:03:53;12.73;;;2.72;;
48665;SDS011;34452;50.796;4.994;2023-02-02T19:06:21;8.95;;;2.50;;
48665;SDS011;34452;50.796;4.994;2023-02-02T19:09:06;11.93;;;3.50;;
48665;SDS011;34452;50.796;4.994;2023-02-02T19:11:34;14.50;;;3.20;;
48665;SDS011;34452;50.796;4.994;2023-02-02T19:14:14;11.43;;;2.47;;
48665;SDS011;34452;50.796;4.994;2023-02-02T19:16:43;12.45;;;3.00;;
48665;SDS011;34452;50.796;4.994;2023-02-02T19:19:11;9.55;;;3.10;;
48665;SDS011;34452;50.796;4.994;2023-02-02T19:21:43;13.20;;;2.90;;